createdAt,value
2022-09-29T00:00:54.183Z,9.41
2022-09-29T00:04:29.301Z,9.32
2022-09-29T00:08:06.259Z,9.25
2022-09-29T00:11:43.968Z,9.19
2022-09-29T00:15:19.798Z,9.15
2022-09-29T00:18:57.319Z,9.11
2022-09-29T00:22:33.729Z,9.07
2022-09-29T00:26:16.237Z,9.00
2022-09-29T00:29:47.404Z,8.95
2022-09-29T00:33:23.763Z,8.86
2022-09-29T00:37:00.637Z,8.79
2022-09-29T00:40:56.620Z,8.80
2022-09-29T00:44:19.462Z,8.81
2022-09-29T00:48:11.004Z,8.85
2022-09-29T00:51:55.304Z,8.93
2022-09-29T00:55:21.021Z,9.00
2022-09-29T00:58:58.304Z,9.01
2022-09-29T01:02:33.655Z,8.97
2022-09-29T01:06:12.833Z,8.92
2022-09-29T01:09:44.377Z,8.86
2022-09-29T01:13:22.599Z,8.82
2022-09-29T01:17:16.813Z,8.84
2022-09-29T01:20:48.991Z,8.88
2022-09-29T01:24:25.210Z,8.92
2022-09-29T01:28:15.594Z,8.92
2022-09-29T01:31:56.085Z,8.87
2022-09-29T01:35:29.144Z,8.81
2022-09-29T01:39:01.250Z,8.76
2022-09-29T01:42:54.496Z,8.73
2022-09-29T01:46:21.399Z,8.73
2022-09-29T01:50:06.866Z,8.73
2022-09-29T01:53:51.638Z,8.81
2022-09-29T01:57:45.870Z,8.90
2022-09-29T02:01:12.039Z,8.91
2022-09-29T02:05:07.686Z,8.91
2022-09-29T02:08:49.319Z,8.89
2022-09-29T02:12:16.862Z,8.86
2022-09-29T02:15:51.197Z,8.86
2022-09-29T02:19:27.805Z,8.89
2022-09-29T02:23:01.381Z,8.87
2022-09-29T02:26:37.532Z,8.92
2022-09-29T02:30:34.573Z,8.91
2022-09-29T02:33:55.105Z,8.84
2022-09-29T02:37:54.753Z,8.79
2022-09-29T02:41:53.513Z,8.83
2022-09-29T02:45:23.886Z,8.89
2022-09-29T02:49:15.522Z,8.90
2022-09-29T02:53:08.617Z,8.90
2022-09-29T02:56:54.351Z,8.86
2022-09-29T03:00:18.319Z,8.79
2022-09-29T03:03:53.247Z,8.78
2022-09-29T03:07:29.479Z,8.73
2022-09-29T03:11:06.129Z,8.73
2022-09-29T03:14:42.824Z,8.75
2022-09-29T03:18:20.001Z,8.75
2022-09-29T03:22:15.571Z,8.70
2022-09-29T03:25:36.232Z,8.69
2022-09-29T03:29:13.287Z,8.73
2022-09-29T03:32:50.262Z,8.76
2022-09-29T03:36:27.476Z,8.77
2022-09-29T03:40:05.731Z,8.74
2022-09-29T03:43:40.236Z,8.70
2022-09-29T03:47:17.067Z,8.66
2022-09-29T03:50:54.811Z,8.60
2022-09-29T03:54:30.789Z,8.56
2022-09-29T03:58:26.886Z,8.56
2022-09-29T04:01:47.772Z,8.56
2022-09-29T04:05:48.183Z,8.55
2022-09-29T04:09:08.931Z,8.53
2022-09-29T04:12:45.562Z,8.52
2022-09-29T04:16:22.509Z,8.51
2022-09-29T04:19:59.149Z,8.48
2022-09-29T04:23:36.646Z,8.54
2022-09-29T04:27:12.858Z,8.55
2022-09-29T04:30:49.933Z,8.54
2022-09-29T04:34:45.637Z,8.50
2022-09-29T04:38:08.369Z,8.46
2022-09-29T04:41:44.056Z,8.42
2022-09-29T04:45:39.263Z,8.34
2022-09-29T04:48:59.711Z,8.30
2022-09-29T04:52:37.010Z,8.31
2022-09-29T04:56:13.501Z,8.31
2022-09-29T04:59:52.028Z,8.33
2022-09-29T05:03:27.123Z,8.32
2022-09-29T05:07:03.950Z,8.29
2022-09-29T05:10:40.686Z,8.29
2022-09-29T05:14:17.243Z,8.30
2022-09-29T05:17:54.204Z,8.32
2022-09-29T05:21:30.860Z,8.40
2022-09-29T05:25:09.164Z,8.47
2022-09-29T05:28:46.634Z,8.49
2022-09-29T05:32:21.220Z,8.47
2022-09-29T05:35:58.031Z,8.48
2022-09-29T05:39:37.334Z,8.51
2022-09-29T05:43:30.479Z,8.57
2022-09-29T05:46:51.152Z,8.65
2022-09-29T05:50:46.830Z,8.78
2022-09-29T05:54:07.829Z,8.87
2022-09-29T05:58:04.867Z,8.87
2022-09-29T06:01:26.540Z,8.86
2022-09-29T06:05:21.286Z,8.87
2022-09-29T06:08:42.951Z,8.94
2022-09-29T06:12:38.060Z,9.00
2022-09-29T06:16:00.168Z,8.99
2022-09-29T06:19:35.590Z,8.92
2022-09-29T06:23:12.699Z,8.93
2022-09-29T06:27:08.023Z,8.96
2022-09-29T06:30:28.976Z,9.01
2022-09-29T06:34:06.142Z,9.03
2022-09-29T06:37:46.517Z,9.05
2022-09-29T06:41:19.747Z,9.05
2022-09-29T06:44:56.266Z,9.01
2022-09-29T06:48:52.376Z,8.93
2022-09-29T06:52:31.902Z,8.89
2022-09-29T06:56:00.992Z,8.93
2022-09-29T06:59:29.059Z,8.95
2022-09-29T07:03:05.799Z,8.98
2022-09-29T07:07:01.505Z,9.01
2022-09-29T07:10:41.775Z,8.99
2022-09-29T07:14:02.362Z,9.00
2022-09-29T07:17:39.059Z,8.99
2022-09-29T07:21:17.940Z,9.04
2022-09-29T07:24:53.834Z,9.15
2022-09-29T07:28:29.782Z,9.22
2022-09-29T07:32:07.563Z,9.24
2022-09-29T07:35:42.927Z,9.26
2022-09-29T07:39:22.860Z,9.31
2022-09-29T07:42:56.484Z,9.32
2022-09-29T07:46:33.490Z,9.45
2022-09-29T07:50:10.793Z,9.62
2022-09-29T07:53:47.698Z,9.73
2022-09-29T07:57:23.762Z,9.85
2022-09-29T08:01:01.909Z,10.00
2022-09-29T08:04:40.004Z,10.06
2022-09-29T08:08:13.971Z,10.13
2022-09-29T08:12:00.136Z,10.25
2022-09-29T08:15:48.822Z,10.34
2022-09-29T08:19:09.819Z,10.42
2022-09-29T08:22:46.931Z,10.50
2022-09-29T08:26:37.803Z,10.55
2022-09-29T08:30:02.251Z,10.62
2022-09-29T08:33:58.338Z,10.65
2022-09-29T08:37:19.230Z,10.57
2022-09-29T08:40:57.948Z,10.57
2022-09-29T08:44:52.066Z,10.64
2022-09-29T08:48:23.826Z,10.78
2022-09-29T08:52:06.569Z,10.88
2022-09-29T08:55:37.803Z,10.96
2022-09-29T08:59:11.946Z,10.96
2022-09-29T09:03:05.197Z,10.88
2022-09-29T09:06:29.039Z,10.92
2022-09-29T09:10:17.954Z,11.03
2022-09-29T09:14:04.491Z,11.08
2022-09-29T09:17:49.749Z,10.99
2022-09-29T09:21:26.362Z,10.94
2022-09-29T09:24:57.151Z,11.02
2022-09-29T09:28:36.370Z,11.22
2022-09-29T09:32:08.249Z,11.40
2022-09-29T09:35:57.345Z,11.43
2022-09-29T09:39:32.069Z,11.51
2022-09-29T09:43:06.950Z,11.69
2022-09-29T09:46:57.282Z,11.74
2022-09-29T09:50:22.960Z,11.91
2022-09-29T09:53:58.498Z,11.96
2022-09-29T09:57:32.193Z,12.01
2022-09-29T10:01:12.055Z,12.08
2022-09-29T10:04:50.085Z,12.13
2022-09-29T10:08:38.309Z,12.26
2022-09-29T10:12:22.313Z,12.45
2022-09-29T10:16:13.560Z,12.68
2022-09-29T10:20:00.935Z,12.95
2022-09-29T10:23:29.511Z,13.03
2022-09-29T10:27:01.890Z,12.79
2022-09-29T10:30:36.345Z,12.55
2022-09-29T10:34:40.116Z,12.43
2022-09-29T10:38:21.190Z,12.37
2022-09-29T10:41:54.235Z,12.33
2022-09-29T10:45:48.588Z,12.37
2022-09-29T10:49:22.275Z,12.52
2022-09-29T10:53:34.633Z,12.69
2022-09-29T10:56:58.164Z,12.85
2022-09-29T11:00:35.259Z,12.93
2022-09-29T11:04:36.581Z,12.92
2022-09-29T11:07:58.225Z,12.91
2022-09-29T11:11:39.881Z,12.89
2022-09-29T11:15:43.330Z,12.75
2022-09-29T11:19:09.669Z,12.77
2022-09-29T11:23:07.474Z,12.74
2022-09-29T11:26:56.486Z,12.62
2022-09-29T11:30:25.059Z,12.55
2022-09-29T11:34:06.870Z,12.51
2022-09-29T11:37:46.551Z,12.54
2022-09-29T11:41:53.452Z,12.59
2022-09-29T11:49:42.470Z,12.83
2022-09-29T11:53:12.874Z,12.98
2022-09-29T11:56:49.547Z,13.07
2022-09-29T12:00:28.103Z,13.13
2022-09-29T12:04:28.232Z,13.30
2022-09-29T12:08:23.534Z,13.49
2022-09-29T12:12:11.662Z,14.00
2022-09-29T12:15:44.599Z,14.54
2022-09-29T12:19:17.255Z,15.16
2022-09-29T12:22:48.424Z,15.64
2022-09-29T12:26:45.636Z,15.72
2022-09-29T12:30:31.262Z,15.82
2022-09-29T12:34:00.114Z,16.35
2022-09-29T12:37:52.845Z,16.54
2022-09-29T12:41:23.785Z,16.43
2022-09-29T12:45:10.597Z,16.20
2022-09-29T12:48:52.517Z,15.89
2022-09-29T12:52:47.398Z,15.66
2022-09-29T12:56:26.453Z,15.46
2022-09-29T13:00:02.249Z,15.30
2022-09-29T13:04:04.286Z,15.28
2022-09-29T13:07:39.800Z,15.37
2022-09-29T13:11:14.909Z,15.52
2022-09-29T13:15:24.012Z,15.41
2022-09-29T13:19:14.299Z,15.21
2022-09-29T13:23:31.340Z,15.05
2022-09-29T13:27:35.733Z,14.77
2022-09-29T13:31:22.778Z,14.82
2022-09-29T13:34:55.665Z,14.98
2022-09-29T13:38:28.777Z,15.02
2022-09-29T13:42:26.909Z,15.11
2022-09-29T13:45:48.456Z,15.09
2022-09-29T13:49:29.160Z,15.03
2022-09-29T13:53:33.027Z,14.95
2022-09-29T13:57:00.371Z,14.79
2022-09-29T14:00:32.264Z,14.96
2022-09-29T14:04:44.093Z,16.29
2022-09-29T14:08:29.037Z,16.55
2022-09-29T14:11:52.585Z,16.54
2022-09-29T14:15:29.580Z,16.20
2022-09-29T14:19:26.622Z,15.78
2022-09-29T14:23:06.177Z,15.31
2022-09-29T14:26:50.933Z,15.08
2022-09-29T14:30:41.638Z,14.98
2022-09-29T14:34:03.721Z,14.79
2022-09-29T14:37:40.193Z,14.62
2022-09-29T14:41:24.893Z,14.48
2022-09-29T14:45:13.804Z,14.43
2022-09-29T14:49:51.108Z,14.13
2022-09-29T14:53:29.655Z,13.73
2022-09-29T14:57:07.908Z,13.49
2022-09-29T15:00:44.411Z,13.33
2022-09-29T15:04:12.126Z,13.14
2022-09-29T15:07:43.182Z,13.01
2022-09-29T15:11:43.434Z,12.95
2022-09-29T15:15:05.372Z,12.88
2022-09-29T15:19:22.105Z,12.82
2022-09-29T15:23:11.328Z,12.80
2022-09-29T15:26:33.878Z,12.83
2022-09-29T15:30:17.217Z,12.83
2022-09-29T15:33:46.682Z,12.82
2022-09-29T15:37:22.225Z,12.77
2022-09-29T15:41:26.308Z,12.70
2022-09-29T15:45:02.972Z,12.60
2022-09-29T15:48:28.102Z,12.53
2022-09-29T15:52:23.827Z,12.49
2022-09-29T15:55:44.568Z,12.40
2022-09-29T15:59:33.384Z,12.29
2022-09-29T16:03:29.662Z,12.18
2022-09-29T16:06:51.038Z,12.11
2022-09-29T16:10:29.900Z,12.03
2022-09-29T16:14:09.506Z,11.94
2022-09-29T16:17:40.932Z,11.83
2022-09-29T16:21:20.966Z,11.74
2022-09-29T16:25:22.618Z,11.58
2022-09-29T16:29:03.081Z,11.44
2022-09-29T16:32:43.757Z,11.33
2022-09-29T16:36:12.172Z,11.22
2022-09-29T16:39:47.970Z,11.09
2022-09-29T16:43:40.278Z,10.96
2022-09-29T16:47:23.219Z,10.87
2022-09-29T16:50:56.434Z,10.76
2022-09-29T16:54:31.517Z,10.62
2022-09-29T16:58:05.029Z,10.52
2022-09-29T17:01:34.448Z,10.36
2022-09-29T17:05:11.071Z,10.21
2022-09-29T17:08:51.833Z,10.09
2022-09-29T17:12:29.059Z,9.99
2022-09-29T17:16:24.337Z,9.85
2022-09-29T17:19:45.113Z,9.74
2022-09-29T17:23:21.870Z,9.67
2022-09-29T17:27:17.127Z,9.63
2022-09-29T17:30:58.075Z,9.61
2022-09-29T17:34:27.784Z,9.55
2022-09-29T17:37:56.918Z,9.50
2022-09-29T17:41:34.143Z,9.49
2022-09-29T17:45:34.883Z,9.49
2022-09-29T17:48:56.778Z,9.49
2022-09-29T17:52:33.282Z,9.47
2022-09-29T17:56:26.428Z,9.43
2022-09-29T17:59:48.362Z,9.40
2022-09-29T18:03:25.044Z,9.40
2022-09-29T18:07:01.791Z,9.40
2022-09-29T18:11:02.793Z,9.44
2022-09-29T18:14:24.344Z,9.46
2022-09-29T18:18:04.445Z,9.46
2022-09-29T18:21:37.558Z,9.45
2022-09-29T18:25:33.899Z,9.46
2022-09-29T18:28:55.079Z,9.41
2022-09-29T18:32:31.728Z,9.33
2022-09-29T18:36:10.388Z,9.30
2022-09-29T18:39:44.927Z,9.28
2022-09-29T18:43:25.743Z,9.25
2022-09-29T18:47:01.470Z,9.21
2022-09-29T18:50:46.229Z,9.14
2022-09-29T18:54:33.512Z,9.05
2022-09-29T18:57:56.221Z,8.92
2022-09-29T19:01:31.444Z,8.86
2022-09-29T19:05:10.934Z,8.85
2022-09-29T19:08:49.279Z,8.83
2022-09-29T19:12:27.225Z,8.79
2022-09-29T19:16:02.490Z,8.75
2022-09-29T19:19:35.107Z,8.68
2022-09-29T19:23:11.904Z,8.58
2022-09-29T19:26:48.723Z,8.44
2022-09-29T19:30:45.889Z,8.33
2022-09-29T19:34:25.931Z,8.19
2022-09-29T19:37:48.391Z,8.09
2022-09-29T19:41:25.182Z,8.03
2022-09-29T19:45:00.307Z,7.94
2022-09-29T19:48:37.673Z,7.83
2022-09-29T19:52:14.184Z,7.74
2022-09-29T19:55:52.489Z,7.62
2022-09-29T19:59:32.024Z,7.49
2022-09-29T20:03:04.537Z,7.38
2022-09-29T20:06:42.201Z,7.29
2022-09-29T20:10:20.543Z,7.20
2022-09-29T20:13:54.779Z,7.15
2022-09-29T20:17:31.623Z,7.16
2022-09-29T20:21:11.813Z,7.16
2022-09-29T20:24:45.406Z,7.10
2022-09-29T20:28:24.694Z,7.01
2022-09-29T20:31:58.783Z,6.96
2022-09-29T20:35:39.025Z,6.86
2022-09-29T20:39:31.290Z,6.79
2022-09-29T20:42:54.640Z,6.76
2022-09-29T20:46:50.572Z,6.77
2022-09-29T20:50:11.603Z,6.76
2022-09-29T20:53:55.134Z,6.74
2022-09-29T20:57:46.330Z,6.68
2022-09-29T21:01:29.229Z,6.59
2022-09-29T21:04:49.932Z,6.53
2022-09-29T21:08:30.423Z,6.43
2022-09-29T21:12:22.561Z,6.33
2022-09-29T21:15:43.271Z,6.26
2022-09-29T21:19:26.687Z,6.27
2022-09-29T21:23:15.651Z,6.34
2022-09-29T21:26:36.689Z,6.39
2022-09-29T21:30:32.164Z,6.41
2022-09-29T21:34:03.573Z,6.44
2022-09-29T21:37:29.784Z,6.46
2022-09-29T21:41:31.604Z,6.44
2022-09-29T21:44:55.920Z,6.40
2022-09-29T21:48:51.314Z,6.38
2022-09-29T21:52:11.998Z,6.35
2022-09-29T21:55:48.733Z,6.38
2022-09-29T21:59:27.618Z,6.36
2022-09-29T22:03:03.146Z,6.33
2022-09-29T22:06:40.594Z,6.31
2022-09-29T22:10:35.284Z,6.31
2022-09-29T22:13:58.634Z,6.28
2022-09-29T22:17:51.917Z,6.29
2022-09-29T22:21:18.507Z,6.25
2022-09-29T22:24:53.183Z,6.18
2022-09-29T22:28:30.362Z,6.10
2022-09-29T22:32:06.457Z,6.03
2022-09-29T22:35:43.855Z,5.96
2022-09-29T22:39:38.906Z,5.90
2022-09-29T22:43:18.173Z,5.89
2022-09-29T22:46:39.755Z,5.91
2022-09-29T22:50:15.874Z,5.95
2022-09-29T22:54:12.523Z,6.00
2022-09-29T22:57:51.732Z,6.03
2022-09-29T23:01:32.840Z,6.05
2022-09-29T23:04:53.445Z,6.09
2022-09-29T23:08:49.005Z,6.14
2022-09-29T23:12:10.228Z,6.20
2022-09-29T23:15:46.696Z,6.25
2022-09-29T23:19:23.097Z,6.25
2022-09-29T23:34:42.659Z,6.29
2022-09-29T23:39:14.260Z,6.33
2022-09-29T23:42:54.737Z,6.27
2022-09-29T23:46:15.806Z,6.23
2022-09-29T23:50:11.750Z,6.25
2022-09-29T23:53:32.425Z,6.25
2022-09-29T23:57:09.336Z,6.26
